createdAt,value
2023-02-06T00:00:53.372Z,100272.56
2023-02-06T00:03:20.577Z,100281.53
2023-02-06T00:06:00.764Z,100276.34
2023-02-06T00:08:28.385Z,100272.31
2023-02-06T00:10:55.293Z,100279.59
2023-02-06T00:13:24.175Z,100280.59
2023-02-06T00:15:51.260Z,100279.44
2023-02-06T00:18:18.272Z,100282.78
2023-02-06T00:20:45.670Z,100287.25
2023-02-06T00:23:12.541Z,100289.22
2023-02-06T00:25:39.477Z,100271.81
2023-02-06T00:28:06.496Z,100280.59
2023-02-06T00:30:33.462Z,100286.88
2023-02-06T00:33:00.528Z,100280.75
2023-02-06T00:35:28.002Z,100285.06
2023-02-06T00:37:54.903Z,100282.25
2023-02-06T00:40:21.748Z,100289.38
2023-02-06T00:42:48.686Z,100290.69
2023-02-06T00:45:15.628Z,100293.78
2023-02-06T00:47:42.624Z,100284.78
2023-02-06T00:50:09.673Z,100288.59
2023-02-06T00:52:36.601Z,100281.59
2023-02-06T00:55:04.989Z,100279.22
2023-02-06T00:57:31.931Z,100277.56
2023-02-06T00:59:58.859Z,100288.19
2023-02-06T01:02:26.701Z,100278.41
2023-02-06T01:04:53.631Z,100287.91
2023-02-06T01:07:20.545Z,100287.91
2023-02-06T01:09:47.415Z,100283.28
2023-02-06T01:12:14.366Z,100279.63
2023-02-06T01:14:41.131Z,100279.63
2023-02-06T01:17:10.389Z,100283.28
2023-02-06T01:19:39.353Z,100285.09
2023-02-06T01:22:06.823Z,100289.41
2023-02-06T01:24:33.735Z,100286.09
2023-02-06T01:27:00.669Z,100295.16
2023-02-06T01:29:27.650Z,100284.00
2023-02-06T01:31:54.830Z,100285.81
2023-02-06T01:34:21.717Z,100288.31
2023-02-06T01:36:48.578Z,100290.97
2023-02-06T01:39:16.196Z,100310.53
2023-02-06T01:41:43.218Z,100300.53
2023-02-06T01:44:22.673Z,100288.56
2023-02-06T01:46:52.341Z,100287.19
2023-02-06T01:49:27.695Z,100292.50
2023-02-06T01:52:10.900Z,100297.50
2023-02-06T01:54:38.021Z,100292.50
2023-02-06T01:57:06.306Z,100288.19
2023-02-06T01:59:34.071Z,100297.13
2023-02-06T02:02:01.068Z,100285.38
2023-02-06T02:04:29.040Z,100286.06
2023-02-06T02:07:12.985Z,100289.41
2023-02-06T02:09:39.988Z,100287.44
2023-02-06T02:12:07.158Z,100291.91
2023-02-06T02:14:34.363Z,100289.41
2023-02-06T02:17:24.995Z,100302.97
2023-02-06T02:20:01.825Z,100296.81
2023-02-06T02:22:50.283Z,100307.44
2023-02-06T02:25:36.228Z,100313.56
2023-02-06T02:28:22.032Z,100307.56
2023-02-06T02:30:51.884Z,100313.03
2023-02-06T02:33:39.885Z,100309.03
2023-02-06T02:36:15.113Z,100307.50
2023-02-06T02:38:53.454Z,100317.53
2023-02-06T02:41:30.399Z,100315.19
2023-02-06T02:43:57.300Z,100335.03
2023-02-06T02:46:28.022Z,100321.41
2023-02-06T02:48:57.115Z,100322.00
2023-02-06T02:51:24.762Z,100326.91
2023-02-06T02:53:51.745Z,100327.75
2023-02-06T02:56:21.146Z,100324.09
2023-02-06T02:58:52.225Z,100319.50
2023-02-06T03:01:26.721Z,100315.31
2023-02-06T03:03:56.490Z,100331.38
2023-02-06T03:06:42.941Z,100328.72
2023-02-06T03:09:33.328Z,100335.16
2023-02-06T03:12:22.985Z,100332.50
2023-02-06T03:14:55.643Z,100329.44
2023-02-06T03:17:43.993Z,100331.25
2023-02-06T03:20:11.732Z,100328.75
2023-02-06T03:22:39.024Z,100329.88
2023-02-06T03:25:10.388Z,100332.13
2023-02-06T03:27:39.739Z,100329.63
2023-02-06T03:30:09.217Z,100328.78
2023-02-06T03:32:40.575Z,100325.69
2023-02-06T03:35:19.717Z,100335.31
2023-02-06T03:37:47.816Z,100322.06
2023-02-06T03:40:15.474Z,100331.00
2023-02-06T03:42:45.697Z,100327.81
2023-02-06T03:45:12.817Z,100334.25
2023-02-06T03:47:40.290Z,100330.63
2023-02-06T03:50:09.545Z,100324.34
2023-02-06T03:52:39.717Z,100316.53
2023-02-06T03:55:29.831Z,100322.66
2023-02-06T03:58:00.541Z,100325.84
2023-02-06T04:00:29.720Z,100330.72
2023-02-06T04:02:57.648Z,100329.28
2023-02-06T04:05:24.888Z,100324.66
2023-02-06T04:07:53.558Z,100325.25
2023-02-06T04:10:23.948Z,100318.13
2023-02-06T04:12:52.386Z,100316.16
2023-02-06T04:15:19.425Z,100314.88
2023-02-06T04:17:59.269Z,100319.03
2023-02-06T04:20:27.564Z,100326.53
2023-02-06T04:22:54.708Z,100313.13
2023-02-06T04:25:22.053Z,100322.31
2023-02-06T04:27:50.433Z,100313.78
2023-02-06T04:30:18.438Z,100322.81
2023-02-06T04:32:45.756Z,100324.69
2023-02-06T04:35:12.830Z,100335.16
2023-02-06T04:37:40.064Z,100329.03
2023-02-06T04:40:07.346Z,100325.22
2023-02-06T04:42:34.446Z,100330.53
2023-02-06T04:45:01.389Z,100327.72
2023-02-06T04:47:51.090Z,100337.88
2023-02-06T04:50:34.700Z,100331.31
2023-02-06T04:53:01.712Z,100339.13
2023-02-06T04:55:29.976Z,100336.47
2023-02-06T05:01:01.473Z,100344.81
2023-02-06T05:03:31.057Z,100336.41
2023-02-06T05:06:01.411Z,100336.09
2023-02-06T05:08:28.595Z,100331.47
2023-02-06T05:10:56.030Z,100337.75
2023-02-06T05:13:23.863Z,100333.06
2023-02-06T05:16:04.389Z,100335.34
2023-02-06T05:18:31.280Z,100337.59
2023-02-06T05:20:59.297Z,100337.06
2023-02-06T05:23:28.807Z,100330.22
2023-02-06T05:25:55.858Z,100338.78
2023-02-06T05:28:22.830Z,100331.97
2023-02-06T05:30:49.965Z,100332.97
2023-02-06T05:33:19.022Z,100322.34
2023-02-06T05:35:45.934Z,100324.84
2023-02-06T05:38:15.505Z,100329.84
2023-02-06T05:40:42.570Z,100333.03
2023-02-06T05:43:10.107Z,100333.56
2023-02-06T05:45:37.408Z,100337.06
2023-02-06T05:48:04.757Z,100338.44
2023-02-06T05:50:37.702Z,100347.78
2023-02-06T05:53:17.316Z,100343.81
2023-02-06T05:55:44.056Z,100340.78
2023-02-06T05:58:10.964Z,100347.66
2023-02-06T06:00:41.379Z,100347.72
2023-02-06T06:03:10.197Z,100351.81
2023-02-06T06:05:38.719Z,100348.50
2023-02-06T06:08:05.752Z,100353.78
2023-02-06T06:10:33.514Z,100351.44
2023-02-06T06:13:00.527Z,100350.19
2023-02-06T06:15:27.511Z,100353.28
2023-02-06T06:17:54.504Z,100356.22
2023-02-06T06:20:21.393Z,100356.97
2023-02-06T06:22:48.243Z,100355.75
2023-02-06T06:25:15.306Z,100360.53
2023-02-06T06:27:42.334Z,100366.81
2023-02-06T06:30:09.787Z,100365.41
2023-02-06T06:32:39.276Z,100364.56
2023-02-06T06:35:06.509Z,100371.69
2023-02-06T06:37:33.628Z,100375.16
2023-02-06T06:40:01.646Z,100371.53
2023-02-06T06:42:28.873Z,100368.75
2023-02-06T06:44:56.191Z,100375.59
2023-02-06T06:47:23.380Z,100371.66
2023-02-06T06:49:53.566Z,100384.63
2023-02-06T06:52:25.271Z,100378.47
2023-02-06T06:54:55.778Z,100384.91
2023-02-06T06:57:25.912Z,100374.59
2023-02-06T06:59:56.576Z,100387.03
2023-02-06T07:06:49.206Z,100369.31
2023-02-06T07:13:26.649Z,100370.31
2023-02-06T07:15:53.736Z,100379.78
2023-02-06T07:18:26.618Z,100372.94
2023-02-06T07:20:53.910Z,100371.38
2023-02-06T07:23:34.636Z,100373.56
2023-02-06T07:27:13.978Z,100376.59
2023-02-06T07:30:06.469Z,100392.22
2023-02-06T07:33:05.978Z,100370.31
2023-02-06T07:35:34.093Z,100379.41
2023-02-06T07:38:04.355Z,100380.69
2023-02-06T07:40:43.930Z,100376.06
2023-02-06T07:43:12.602Z,100380.53
2023-02-06T07:45:42.725Z,100373.41
2023-02-06T07:48:13.292Z,100384.41
2023-02-06T07:50:40.757Z,100390.94
2023-02-06T07:53:08.042Z,100387.03
2023-02-06T07:55:38.859Z,100384.78
2023-02-06T07:58:06.014Z,100380.53
2023-02-06T08:00:35.944Z,100380.91
2023-02-06T08:03:03.363Z,100388.44
2023-02-06T08:05:31.129Z,100385.47
2023-02-06T08:07:58.322Z,100394.00
2023-02-06T08:10:25.904Z,100387.41
2023-02-06T08:12:53.130Z,100389.06
2023-02-06T08:15:20.156Z,100387.41
2023-02-06T08:18:00.712Z,100379.59
2023-02-06T08:20:38.626Z,100374.97
2023-02-06T08:23:08.209Z,100382.94
2023-02-06T08:30:47.687Z,100389.38
2023-02-06T08:33:14.843Z,100387.41
2023-02-06T08:36:32.762Z,100386.13
2023-02-06T08:39:35.284Z,100384.28
2023-02-06T08:42:18.916Z,100385.50
2023-02-06T08:44:46.243Z,100380.06
2023-02-06T08:48:58.047Z,100383.69
2023-02-06T08:50:36.679Z,100379.53
2023-02-06T08:53:25.599Z,100391.50
2023-02-06T08:56:36.586Z,100390.22
2023-02-06T09:15:38.478Z,100396.34
2023-02-06T09:26:25.417Z,100393.31
2023-02-06T09:29:30.765Z,100394.59
2023-02-06T09:32:02.968Z,100390.13
2023-02-06T09:35:06.650Z,100386.50
2023-02-06T09:38:28.272Z,100382.31
2023-02-06T09:41:25.671Z,100380.72
2023-02-06T09:44:19.683Z,100378.97
2023-02-06T09:47:12.865Z,100375.75
2023-02-06T10:06:52.406Z,100394.31
2023-02-06T10:13:12.647Z,100395.38
2023-02-06T10:15:53.395Z,100400.00
2023-02-06T10:18:33.140Z,100399.19
2023-02-06T10:21:44.875Z,100394.03
2023-02-06T10:24:40.166Z,100401.47
2023-02-06T10:27:16.240Z,100392.66
2023-02-06T10:29:45.533Z,100398.13
2023-02-06T10:32:16.426Z,100397.44
2023-02-06T10:35:36.591Z,100403.03
2023-02-06T10:38:21.514Z,100397.56
2023-02-06T10:43:52.003Z,100399.63
2023-02-06T10:46:22.989Z,100388.72
2023-02-06T10:49:09.369Z,100387.72
2023-02-06T11:00:43.340Z,100385.06
2023-02-06T11:03:34.721Z,100388.00
2023-02-06T11:06:09.746Z,100384.06
2023-02-06T11:16:44.089Z,100392.56
2023-02-06T11:19:19.269Z,100382.78
2023-02-06T11:22:14.457Z,100380.97
2023-02-06T11:25:00.356Z,100382.63
2023-02-06T11:27:27.898Z,100377.72
2023-02-06T11:29:55.186Z,100382.72
2023-02-06T11:32:36.240Z,100384.38
2023-02-06T11:35:24.103Z,100387.19
2023-02-06T11:38:05.417Z,100380.06
2023-02-06T11:51:27.148Z,100381.66
2023-02-06T11:54:02.824Z,100381.03
2023-02-06T11:56:31.030Z,100383.69
2023-02-06T11:59:06.940Z,100391.66
2023-02-06T12:01:41.105Z,100391.19
2023-02-06T12:04:28.541Z,100376.34
2023-02-06T12:07:02.632Z,100379.06
2023-02-06T12:09:29.928Z,100388.38
2023-02-06T12:12:00.741Z,100380.25
2023-02-06T12:14:29.653Z,100375.94
2023-02-06T12:17:19.358Z,100377.75
2023-02-06T12:19:52.405Z,100375.09
2023-02-06T12:27:39.054Z,100372.53
2023-02-06T12:30:56.595Z,100367.25
2023-02-06T12:38:05.303Z,100365.38
2023-02-06T12:40:51.699Z,100370.53
2023-02-06T12:43:21.785Z,100369.00
2023-02-06T12:46:50.311Z,100375.31
2023-02-06T12:54:19.198Z,100374.59
2023-02-06T12:58:26.426Z,100379.22
2023-02-06T13:00:26.024Z,100377.56
2023-02-06T13:03:54.521Z,100376.41
2023-02-06T13:11:03.396Z,100374.94
2023-02-06T13:13:44.853Z,100373.81
2023-02-06T13:18:49.961Z,100377.75
2023-02-06T13:25:33.441Z,100396.38
2023-02-06T13:29:15.856Z,100407.59
2023-02-06T13:40:30.941Z,100391.88
2023-02-06T13:44:20.488Z,100395.22
2023-02-06T13:47:32.976Z,100394.06
2023-02-06T13:50:43.077Z,100401.75
2023-02-06T13:53:52.885Z,100402.28
2023-02-06T14:00:44.099Z,100406.81
2023-02-06T14:03:34.351Z,100408.41
2023-02-06T14:06:09.499Z,100417.66
2023-02-06T14:09:16.946Z,100420.75
2023-02-06T14:12:24.796Z,100424.69
2023-02-06T14:15:06.621Z,100429.16
2023-02-06T14:21:36.381Z,100422.22
2023-02-06T14:24:17.225Z,100423.06
2023-02-06T14:26:53.820Z,100421.22
2023-02-06T14:32:51.941Z,100416.63
2023-02-06T14:35:46.906Z,100410.31
2023-02-06T14:38:28.132Z,100416.19
2023-02-06T14:40:56.777Z,100413.25
2023-02-06T14:43:26.074Z,100418.09
2023-02-06T14:46:06.810Z,100416.13
2023-02-06T14:48:44.684Z,100422.28
2023-02-06T14:51:28.827Z,100424.78
2023-02-06T14:54:01.764Z,100427.28
2023-02-06T14:56:30.735Z,100427.44
2023-02-06T14:59:08.164Z,100434.25
2023-02-06T15:01:35.100Z,100432.88
2023-02-06T15:04:28.224Z,100442.66
2023-02-06T15:06:59.590Z,100440.16
2023-02-06T15:09:33.999Z,100445.75
2023-02-06T15:12:05.122Z,100441.59
2023-02-06T15:14:37.738Z,100436.28
2023-02-06T15:17:30.287Z,100440.91
2023-02-06T15:19:57.956Z,100435.59
2023-02-06T15:22:29.479Z,100434.63
2023-02-06T15:24:56.650Z,100437.41
2023-02-06T15:27:32.041Z,100440.34
2023-02-06T15:29:59.762Z,100442.31
2023-02-06T15:32:32.296Z,100439.78
2023-02-06T15:35:00.067Z,100435.31
2023-02-06T15:37:32.639Z,100437.16
2023-02-06T15:40:20.988Z,100440.63
2023-02-06T15:42:49.033Z,100435.47
2023-02-06T15:45:19.625Z,100433.97
2023-02-06T15:47:46.741Z,100430.63
2023-02-06T15:50:17.761Z,100438.72
2023-02-06T15:52:47.539Z,100433.72
2023-02-06T15:55:25.099Z,100434.69
2023-02-06T15:57:52.438Z,100436.66
2023-02-06T16:00:23.755Z,100442.94
2023-02-06T16:02:51.489Z,100447.41
2023-02-06T16:05:28.854Z,100443.25
2023-02-06T16:07:55.866Z,100449.09
2023-02-06T16:10:22.938Z,100443.13
2023-02-06T16:12:52.254Z,100437.81
2023-02-06T16:15:22.494Z,100442.28
2023-02-06T16:17:50.399Z,100443.94
2023-02-06T16:20:32.289Z,100437.41
2023-02-06T16:23:23.428Z,100441.44
2023-02-06T16:26:00.125Z,100441.81
2023-02-06T16:28:28.029Z,100444.19
2023-02-06T16:30:56.341Z,100448.50
2023-02-06T16:33:35.135Z,100456.44
2023-02-06T16:36:02.253Z,100452.13
2023-02-06T16:38:29.451Z,100438.88
2023-02-06T16:40:56.744Z,100446.97
2023-02-06T16:43:23.870Z,100447.13
2023-02-06T16:45:50.844Z,100445.47
2023-02-06T16:48:19.253Z,100449.38
2023-02-06T16:50:48.503Z,100446.88
2023-02-06T16:53:22.974Z,100449.69
2023-02-06T16:55:50.129Z,100445.22
2023-02-06T16:58:23.784Z,100450.50
2023-02-06T17:00:56.544Z,100450.22
2023-02-06T17:03:26.632Z,100459.84
2023-02-06T17:05:56.167Z,100457.19
2023-02-06T17:08:26.634Z,100465.28
2023-02-06T17:10:54.184Z,100454.53
2023-02-06T17:13:23.169Z,100460.38
2023-02-06T17:15:53.358Z,100464.41
2023-02-06T17:18:21.832Z,100464.84
2023-02-06T17:20:51.741Z,100469.31
2023-02-06T17:23:22.736Z,100473.41
2023-02-06T17:25:53.313Z,100485.97
2023-02-06T17:28:20.665Z,100492.09
2023-02-06T17:30:51.150Z,100492.78
2023-02-06T17:33:18.255Z,100493.78
2023-02-06T17:35:48.949Z,100493.91
2023-02-06T17:38:23.269Z,100505.50
2023-02-06T17:40:50.632Z,100512.63
2023-02-06T17:43:17.647Z,100521.56
2023-02-06T17:45:44.683Z,100519.16
2023-02-06T17:48:11.941Z,100521.97
2023-02-06T17:50:40.829Z,100528.09
2023-02-06T17:53:10.414Z,100525.44
2023-02-06T17:55:37.772Z,100527.94
2023-02-06T17:58:07.985Z,100528.63
2023-02-06T18:00:35.172Z,100537.16
2023-02-06T18:03:05.719Z,100543.16
2023-02-06T18:05:33.766Z,100543.16
2023-02-06T18:08:11.391Z,100547.78
2023-02-06T18:10:42.466Z,100543.59
2023-02-06T18:13:12.372Z,100546.38
2023-02-06T18:15:39.602Z,100542.88
2023-02-06T18:18:06.832Z,100550.28
2023-02-06T18:20:35.309Z,100549.44
2023-02-06T18:23:02.755Z,100548.91
2023-02-06T18:25:32.188Z,100553.50
2023-02-06T18:27:59.347Z,100553.78
2023-02-06T18:30:35.938Z,100552.28
2023-02-06T18:33:07.437Z,100549.22
2023-02-06T18:35:41.556Z,100564.41
2023-02-06T18:38:10.082Z,100566.78
2023-02-06T18:41:30.500Z,100561.91
2023-02-06T18:44:05.597Z,100567.91
2023-02-06T18:46:39.714Z,100576.97
2023-02-06T18:49:11.696Z,100579.06
2023-02-06T18:51:42.594Z,100577.25
2023-02-06T18:54:10.283Z,100591.19
2023-02-06T18:56:38.301Z,100581.03
2023-02-06T18:59:05.888Z,100591.91
2023-02-06T19:01:33.904Z,100597.34
2023-02-06T19:04:00.902Z,100599.00
2023-02-06T19:06:31.953Z,100600.81
2023-02-06T19:08:59.512Z,100602.34
2023-02-06T19:11:51.814Z,100601.25
2023-02-06T19:14:33.067Z,100602.50
2023-02-06T19:17:00.385Z,100598.31
2023-02-06T19:19:27.612Z,100612.25
2023-02-06T19:21:56.334Z,100608.78
2023-02-06T19:24:24.169Z,100609.63
2023-02-06T19:26:51.244Z,100612.66
2023-02-06T19:29:34.357Z,100603.88
2023-02-06T19:32:12.733Z,100612.78
2023-02-06T19:34:44.155Z,100612.53
2023-02-06T19:37:20.466Z,100607.66
2023-02-06T19:39:50.005Z,100601.38
2023-02-06T19:42:25.420Z,100604.72
2023-02-06T19:45:39.451Z,100607.38
2023-02-06T19:48:12.394Z,100612.94
2023-02-06T19:50:42.332Z,100613.50
2023-02-06T19:53:10.105Z,100617.69
2023-02-06T20:06:47.529Z,100639.75
2023-02-06T20:09:16.978Z,100635.56
2023-02-06T20:11:44.224Z,100642.78
2023-02-06T20:14:14.002Z,100646.41
2023-02-06T20:16:42.841Z,100652.00
2023-02-06T20:19:46.369Z,100658.53
2023-02-06T20:22:33.710Z,100653.25
2023-02-06T20:25:03.284Z,100652.00
2023-02-06T20:27:31.100Z,100655.19
2023-02-06T20:29:58.248Z,100643.38
2023-02-06T20:32:25.237Z,100652.03
2023-02-06T20:34:52.280Z,100646.56
2023-02-06T20:37:19.336Z,100649.09
2023-02-06T20:39:46.527Z,100643.09
2023-02-06T20:42:13.459Z,100647.69
2023-02-06T20:44:40.446Z,100648.22
2023-02-06T20:47:07.585Z,100643.22
2023-02-06T20:49:34.758Z,100650.47
2023-02-06T20:52:09.763Z,100648.78
2023-02-06T20:54:36.664Z,100650.31
2023-02-06T20:57:03.694Z,100652.00
2023-02-06T20:59:30.704Z,100657.00
2023-02-06T21:01:57.627Z,100668.31
2023-02-06T21:04:24.538Z,100661.34
2023-02-06T21:06:51.512Z,100660.91
2023-02-06T21:09:18.897Z,100659.81
2023-02-06T21:11:46.946Z,100664.69
2023-02-06T21:14:14.283Z,100669.69
2023-02-06T21:16:41.660Z,100663.44
2023-02-06T21:19:10.237Z,100666.06
2023-02-06T21:21:37.717Z,100666.91
2023-02-06T21:24:04.832Z,100666.78
2023-02-06T21:26:32.787Z,100665.53
2023-02-06T21:29:00.141Z,100672.34
2023-02-06T21:31:37.338Z,100675.56
2023-02-06T21:34:08.361Z,100682.16
2023-02-06T21:36:36.689Z,100680.34
2023-02-06T21:39:03.940Z,100678.53
2023-02-06T21:41:31.070Z,100690.66
2023-02-06T21:43:58.234Z,100688.56
2023-02-06T21:46:26.274Z,100690.22
2023-02-06T21:48:53.762Z,100692.31
2023-02-06T21:51:21.505Z,100688.00
2023-02-06T21:53:48.332Z,100686.06
2023-02-06T21:56:17.705Z,100689.97
2023-02-06T21:58:44.781Z,100687.59
2023-02-06T22:01:16.259Z,100686.84
2023-02-06T22:03:44.133Z,100687.84
2023-02-06T22:06:12.550Z,100692.72
2023-02-06T22:08:40.872Z,100688.66
2023-02-06T22:11:19.969Z,100704.00
2023-02-06T22:13:48.185Z,100703.44
2023-02-06T22:16:16.302Z,100702.88
2023-02-06T22:18:43.335Z,100709.28
2023-02-06T22:21:11.594Z,100703.16
2023-02-06T22:23:40.719Z,100706.50
2023-02-06T22:26:08.702Z,100708.88
2023-02-06T22:28:35.658Z,100705.13
2023-02-06T22:31:10.577Z,100711.41
2023-02-06T22:33:37.648Z,100712.22
2023-02-06T22:36:05.858Z,100708.59
2023-02-06T22:38:32.969Z,100704.97
2023-02-06T22:41:01.676Z,100702.75
2023-02-06T22:43:29.470Z,100708.47
2023-02-06T22:45:59.895Z,100716.28
2023-02-06T22:48:26.981Z,100722.56
2023-02-06T22:50:54.467Z,100715.59
2023-02-06T22:53:31.946Z,100719.06
2023-02-06T22:56:29.693Z,100726.03
2023-02-06T22:59:04.480Z,100723.97
2023-02-06T23:01:33.462Z,100724.28
2023-02-06T23:04:01.648Z,100727.63
2023-02-06T23:06:29.412Z,100730.81
2023-02-06T23:08:56.995Z,100723.56
2023-02-06T23:11:24.842Z,100727.06
2023-02-06T23:13:56.406Z,100733.19
2023-02-06T23:16:23.849Z,100729.00
2023-02-06T23:18:50.764Z,100730.00
2023-02-06T23:21:18.664Z,100731.94
2023-02-06T23:23:45.702Z,100723.56
2023-02-06T23:26:13.672Z,100726.38
2023-02-06T23:28:41.467Z,100727.34
2023-02-06T23:31:09.182Z,100731.06
2023-02-06T23:33:36.235Z,100733.03
2023-02-06T23:36:07.554Z,100740.13
2023-02-06T23:38:34.366Z,100740.69
2023-02-06T23:41:11.851Z,100744.78
2023-02-06T23:43:39.250Z,100747.28
2023-02-06T23:46:06.947Z,100746.44
2023-02-06T23:48:34.325Z,100743.34
2023-02-06T23:51:01.523Z,100740.84
2023-02-06T23:53:28.924Z,100746.88
2023-02-06T23:55:55.782Z,100741.44
2023-02-06T23:58:22.706Z,100744.78
